sensor_id;sensor_type;location;lat;lon;timestamp;temperature;humidity
56298;DHT22;42208;6.376;-10.782;2023-04-24T00:00:49;27.80;99.90
56298;DHT22;42208;6.376;-10.782;2023-04-24T00:03:17;27.70;99.90
56298;DHT22;42208;6.376;-10.782;2023-04-24T00:05:46;27.70;99.90
56298;DHT22;42208;6.376;-10.782;2023-04-24T00:08:14;27.70;99.90
56298;DHT22;42208;6.376;-10.782;2023-04-24T00:10:42;27.70;99.90
56298;DHT22;42208;6.376;-10.782;2023-04-24T00:13:11;27.70;99.90
56298;DHT22;42208;6.376;-10.782;2023-04-24T00:15:39;27.70;99.90
56298;DHT22;42208;6.376;-10.782;2023-04-24T00:18:07;27.70;99.90
56298;DHT22;42208;6.376;-10.782;2023-04-24T00:20:36;27.70;99.90
56298;DHT22;42208;6.376;-10.782;2023-04-24T00:23:04;27.70;99.90
56298;DHT22;42208;6.376;-10.782;2023-04-24T00:25:32;27.70;99.90
56298;DHT22;42208;6.376;-10.782;2023-04-24T00:28:00;27.70;99.90
56298;DHT22;42208;6.376;-10.782;2023-04-24T00:30:29;27.70;99.90
56298;DHT22;42208;6.376;-10.782;2023-04-24T00:32:57;27.70;99.90
56298;DHT22;42208;6.376;-10.782;2023-04-24T00:35:25;27.70;99.90
56298;DHT22;42208;6.376;-10.782;2023-04-24T00:37:54;27.60;99.90
56298;DHT22;42208;6.376;-10.782;2023-04-24T00:40:22;27.60;99.90
56298;DHT22;42208;6.376;-10.782;2023-04-24T00:42:50;27.60;99.90
56298;DHT22;42208;6.376;-10.782;2023-04-24T00:45:19;27.60;99.90
56298;DHT22;42208;6.376;-10.782;2023-04-24T00:47:48;27.60;99.90
56298;DHT22;42208;6.376;-10.782;2023-04-24T00:50:17;27.70;99.90
56298;DHT22;42208;6.376;-10.782;2023-04-24T00:52:45;27.60;99.90
56298;DHT22;42208;6.376;-10.782;2023-04-24T00:55:13;27.60;99.90
56298;DHT22;42208;6.376;-10.782;2023-04-24T00:57:43;27.60;99.90
56298;DHT22;42208;6.376;-10.782;2023-04-24T01:00:12;27.60;99.90
56298;DHT22;42208;6.376;-10.782;2023-04-24T01:02:44;27.60;99.90
56298;DHT22;42208;6.376;-10.782;2023-04-24T01:05:14;27.60;99.90
56298;DHT22;42208;6.376;-10.782;2023-04-24T01:07:45;27.60;99.90
56298;DHT22;42208;6.376;-10.782;2023-04-24T01:10:14;27.60;99.90
56298;DHT22;42208;6.376;-10.782;2023-04-24T01:12:45;27.60;99.90
56298;DHT22;42208;6.376;-10.782;2023-04-24T01:15:13;27.60;99.90
56298;DHT22;42208;6.376;-10.782;2023-04-24T01:17:42;27.60;99.90
56298;DHT22;42208;6.376;-10.782;2023-04-24T01:20:10;27.60;99.90
56298;DHT22;42208;6.376;-10.782;2023-04-24T01:22:41;27.60;99.90
56298;DHT22;42208;6.376;-10.782;2023-04-24T01:25:09;27.60;99.90
56298;DHT22;42208;6.376;-10.782;2023-04-24T01:27:38;27.60;99.90
56298;DHT22;42208;6.376;-10.782;2023-04-24T01:30:07;27.60;99.90
56298;DHT22;42208;6.376;-10.782;2023-04-24T01:32:36;27.60;99.90
56298;DHT22;42208;6.376;-10.782;2023-04-24T01:35:06;27.60;99.90
56298;DHT22;42208;6.376;-10.782;2023-04-24T01:37:34;27.60;99.90
56298;DHT22;42208;6.376;-10.782;2023-04-24T01:40:07;27.60;99.90
56298;DHT22;42208;6.376;-10.782;2023-04-24T01:42:35;27.60;99.90
56298;DHT22;42208;6.376;-10.782;2023-04-24T01:45:04;27.60;99.90
56298;DHT22;42208;6.376;-10.782;2023-04-24T01:47:33;27.60;99.90
56298;DHT22;42208;6.376;-10.782;2023-04-24T01:50:02;27.50;99.90
56298;DHT22;42208;6.376;-10.782;2023-04-24T01:52:31;27.50;99.90
56298;DHT22;42208;6.376;-10.782;2023-04-24T01:55:00;27.50;99.90
56298;DHT22;42208;6.376;-10.782;2023-04-24T01:57:29;27.50;99.90
56298;DHT22;42208;6.376;-10.782;2023-04-24T01:59:58;27.50;99.90
56298;DHT22;42208;6.376;-10.782;2023-04-24T02:02:29;27.50;99.90
56298;DHT22;42208;6.376;-10.782;2023-04-24T02:04:57;27.50;99.90
56298;DHT22;42208;6.376;-10.782;2023-04-24T02:07:26;27.50;99.90
56298;DHT22;42208;6.376;-10.782;2023-04-24T02:09:54;27.50;99.90
56298;DHT22;42208;6.376;-10.782;2023-04-24T02:12:22;27.50;99.90
56298;DHT22;42208;6.376;-10.782;2023-04-24T02:14:51;27.50;99.90
56298;DHT22;42208;6.376;-10.782;2023-04-24T02:17:19;27.50;99.90
56298;DHT22;42208;6.376;-10.782;2023-04-24T02:19:47;27.50;99.90
56298;DHT22;42208;6.376;-10.782;2023-04-24T02:22:16;27.50;99.90
56298;DHT22;42208;6.376;-10.782;2023-04-24T02:24:45;27.40;99.90
56298;DHT22;42208;6.376;-10.782;2023-04-24T02:27:15;27.50;99.90
56298;DHT22;42208;6.376;-10.782;2023-04-24T02:29:43;27.50;99.90
56298;DHT22;42208;6.376;-10.782;2023-04-24T02:32:12;27.50;99.90
56298;DHT22;42208;6.376;-10.782;2023-04-24T02:34:42;27.40;99.90
56298;DHT22;42208;6.376;-10.782;2023-04-24T02:37:12;27.50;99.90
56298;DHT22;42208;6.376;-10.782;2023-04-24T02:39:40;27.50;99.90
56298;DHT22;42208;6.376;-10.782;2023-04-24T02:42:09;27.50;99.90
56298;DHT22;42208;6.376;-10.782;2023-04-24T02:44:37;27.50;99.90
56298;DHT22;42208;6.376;-10.782;2023-04-24T02:47:06;27.50;99.90
56298;DHT22;42208;6.376;-10.782;2023-04-24T02:49:34;27.50;99.90
56298;DHT22;42208;6.376;-10.782;2023-04-24T02:52:02;27.50;99.90
56298;DHT22;42208;6.376;-10.782;2023-04-24T02:54:30;27.40;99.90
56298;DHT22;42208;6.376;-10.782;2023-04-24T02:56:59;27.50;99.90
56298;DHT22;42208;6.376;-10.782;2023-04-24T02:59:27;27.50;99.90
56298;DHT22;42208;6.376;-10.782;2023-04-24T03:01:55;27.50;99.90
56298;DHT22;42208;6.376;-10.782;2023-04-24T03:04:24;27.50;99.90
56298;DHT22;42208;6.376;-10.782;2023-04-24T03:06:52;27.50;99.90
56298;DHT22;42208;6.376;-10.782;2023-04-24T03:09:21;27.50;99.90
56298;DHT22;42208;6.376;-10.782;2023-04-24T03:11:49;27.50;99.90
56298;DHT22;42208;6.376;-10.782;2023-04-24T03:14:17;27.50;99.90
56298;DHT22;42208;6.376;-10.782;2023-04-24T03:16:46;27.50;99.90
56298;DHT22;42208;6.376;-10.782;2023-04-24T03:19:14;27.50;99.90
56298;DHT22;42208;6.376;-10.782;2023-04-24T03:21:54;27.50;99.90
56298;DHT22;42208;6.376;-10.782;2023-04-24T03:24:22;27.50;99.90
56298;DHT22;42208;6.376;-10.782;2023-04-24T03:26:50;27.40;99.90
56298;DHT22;42208;6.376;-10.782;2023-04-24T03:29:39;27.40;99.90
56298;DHT22;42208;6.376;-10.782;2023-04-24T03:32:08;27.40;99.90
56298;DHT22;42208;6.376;-10.782;2023-04-24T03:34:38;27.30;99.90
56298;DHT22;42208;6.376;-10.782;2023-04-24T03:37:08;27.20;99.90
56298;DHT22;42208;6.376;-10.782;2023-04-24T03:39:40;27.20;99.90
56298;DHT22;42208;6.376;-10.782;2023-04-24T03:42:10;27.10;99.90
56298;DHT22;42208;6.376;-10.782;2023-04-24T03:44:49;27.20;99.90
56298;DHT22;42208;6.376;-10.782;2023-04-24T03:47:19;27.10;99.90
56298;DHT22;42208;6.376;-10.782;2023-04-24T03:49:48;27.10;99.90
56298;DHT22;42208;6.376;-10.782;2023-04-24T03:52:16;27.10;99.90
56298;DHT22;42208;6.376;-10.782;2023-04-24T03:54:45;27.00;99.90
56298;DHT22;42208;6.376;-10.782;2023-04-24T03:57:13;27.00;99.90
56298;DHT22;42208;6.376;-10.782;2023-04-24T03:59:52;27.00;99.90
56298;DHT22;42208;6.376;-10.782;2023-04-24T04:02:21;27.00;99.90
56298;DHT22;42208;6.376;-10.782;2023-04-24T04:04:49;27.00;99.90
56298;DHT22;42208;6.376;-10.782;2023-04-24T04:07:18;26.90;99.90
56298;DHT22;42208;6.376;-10.782;2023-04-24T04:09:46;27.00;99.90
56298;DHT22;42208;6.376;-10.782;2023-04-24T04:12:15;27.00;99.90
56298;DHT22;42208;6.376;-10.782;2023-04-24T04:14:43;27.00;99.90
56298;DHT22;42208;6.376;-10.782;2023-04-24T04:17:12;27.00;99.90
56298;DHT22;42208;6.376;-10.782;2023-04-24T04:19:40;27.00;99.90
56298;DHT22;42208;6.376;-10.782;2023-04-24T04:22:09;26.90;99.90
56298;DHT22;42208;6.376;-10.782;2023-04-24T04:24:44;26.90;99.90
56298;DHT22;42208;6.376;-10.782;2023-04-24T04:27:13;26.90;99.90
56298;DHT22;42208;6.376;-10.782;2023-04-24T04:29:59;26.90;99.90
56298;DHT22;42208;6.376;-10.782;2023-04-24T04:32:30;26.90;99.90
56298;DHT22;42208;6.376;-10.782;2023-04-24T04:34:59;26.90;99.90
56298;DHT22;42208;6.376;-10.782;2023-04-24T04:37:28;26.80;99.90
56298;DHT22;42208;6.376;-10.782;2023-04-24T04:40:12;26.80;99.90
56298;DHT22;42208;6.376;-10.782;2023-04-24T04:42:50;26.80;99.90
56298;DHT22;42208;6.376;-10.782;2023-04-24T04:45:20;26.80;99.90
56298;DHT22;42208;6.376;-10.782;2023-04-24T04:48:09;26.80;99.90
56298;DHT22;42208;6.376;-10.782;2023-04-24T04:50:37;26.80;99.90
56298;DHT22;42208;6.376;-10.782;2023-04-24T04:53:07;26.80;99.90
56298;DHT22;42208;6.376;-10.782;2023-04-24T04:55:38;26.80;99.90
56298;DHT22;42208;6.376;-10.782;2023-04-24T04:58:17;26.80;99.90
56298;DHT22;42208;6.376;-10.782;2023-04-24T05:00:48;26.80;99.90
56298;DHT22;42208;6.376;-10.782;2023-04-24T05:03:26;26.70;99.90
56298;DHT22;42208;6.376;-10.782;2023-04-24T05:06:03;26.70;99.90
56298;DHT22;42208;6.376;-10.782;2023-04-24T05:08:35;26.70;99.90
56298;DHT22;42208;6.376;-10.782;2023-04-24T05:11:06;26.70;99.90
56298;DHT22;42208;6.376;-10.782;2023-04-24T05:13:36;26.60;99.90
56298;DHT22;42208;6.376;-10.782;2023-04-24T05:16:25;26.60;99.90
56298;DHT22;42208;6.376;-10.782;2023-04-24T05:18:54;26.70;99.90
56298;DHT22;42208;6.376;-10.782;2023-04-24T05:21:28;26.60;99.90
56298;DHT22;42208;6.376;-10.782;2023-04-24T05:23:57;26.60;99.90
56298;DHT22;42208;6.376;-10.782;2023-04-24T05:27:04;26.60;99.90
56298;DHT22;42208;6.376;-10.782;2023-04-24T05:29:37;26.60;99.90
56298;DHT22;42208;6.376;-10.782;2023-04-24T05:32:06;26.60;99.90
56298;DHT22;42208;6.376;-10.782;2023-04-24T05:34:34;26.70;99.90
56298;DHT22;42208;6.376;-10.782;2023-04-24T05:37:03;26.70;99.90
56298;DHT22;42208;6.376;-10.782;2023-04-24T05:39:31;26.70;99.90
56298;DHT22;42208;6.376;-10.782;2023-04-24T05:41:59;26.70;99.90
56298;DHT22;42208;6.376;-10.782;2023-04-24T05:44:28;26.70;99.90
56298;DHT22;42208;6.376;-10.782;2023-04-24T05:46:56;26.70;99.90
56298;DHT22;42208;6.376;-10.782;2023-04-24T05:49:24;26.70;99.90
56298;DHT22;42208;6.376;-10.782;2023-04-24T05:51:53;26.70;99.90
56298;DHT22;42208;6.376;-10.782;2023-04-24T05:54:22;26.70;99.90
56298;DHT22;42208;6.376;-10.782;2023-04-24T05:56:51;26.70;99.90
56298;DHT22;42208;6.376;-10.782;2023-04-24T05:59:29;26.70;99.90
56298;DHT22;42208;6.376;-10.782;2023-04-24T06:01:58;26.70;99.90
56298;DHT22;42208;6.376;-10.782;2023-04-24T06:04:26;26.70;99.90
56298;DHT22;42208;6.376;-10.782;2023-04-24T06:06:55;26.70;99.90
56298;DHT22;42208;6.376;-10.782;2023-04-24T06:09:24;26.70;99.90
56298;DHT22;42208;6.376;-10.782;2023-04-24T06:11:53;26.60;99.90
56298;DHT22;42208;6.376;-10.782;2023-04-24T06:14:25;26.60;99.90
56298;DHT22;42208;6.376;-10.782;2023-04-24T06:17:16;26.60;99.90
56298;DHT22;42208;6.376;-10.782;2023-04-24T06:19:46;26.60;99.90
56298;DHT22;42208;6.376;-10.782;2023-04-24T06:22:14;26.60;99.90
56298;DHT22;42208;6.376;-10.782;2023-04-24T06:24:42;26.60;99.90
56298;DHT22;42208;6.376;-10.782;2023-04-24T06:27:11;26.60;99.90
56298;DHT22;42208;6.376;-10.782;2023-04-24T06:29:41;26.50;99.90
56298;DHT22;42208;6.376;-10.782;2023-04-24T06:32:10;26.50;99.90
56298;DHT22;42208;6.376;-10.782;2023-04-24T06:34:38;26.40;99.90
56298;DHT22;42208;6.376;-10.782;2023-04-24T06:37:06;26.40;99.90
56298;DHT22;42208;6.376;-10.782;2023-04-24T06:39:35;26.40;99.90
56298;DHT22;42208;6.376;-10.782;2023-04-24T06:42:03;26.40;99.90
56298;DHT22;42208;6.376;-10.782;2023-04-24T06:44:34;26.40;99.90
56298;DHT22;42208;6.376;-10.782;2023-04-24T06:47:03;26.30;99.90
56298;DHT22;42208;6.376;-10.782;2023-04-24T06:49:31;26.30;99.90
56298;DHT22;42208;6.376;-10.782;2023-04-24T06:51:59;26.20;99.90
56298;DHT22;42208;6.376;-10.782;2023-04-24T06:54:28;26.20;99.90
56298;DHT22;42208;6.376;-10.782;2023-04-24T06:56:56;26.20;99.90
56298;DHT22;42208;6.376;-10.782;2023-04-24T06:59:25;26.20;99.90
56298;DHT22;42208;6.376;-10.782;2023-04-24T07:01:54;26.20;99.90
56298;DHT22;42208;6.376;-10.782;2023-04-24T07:04:23;26.20;99.90
56298;DHT22;42208;6.376;-10.782;2023-04-24T07:06:51;26.30;99.90
56298;DHT22;42208;6.376;-10.782;2023-04-24T07:09:20;26.30;99.90
56298;DHT22;42208;6.376;-10.782;2023-04-24T07:11:48;26.30;99.90
56298;DHT22;42208;6.376;-10.782;2023-04-24T07:14:16;26.30;99.90
56298;DHT22;42208;6.376;-10.782;2023-04-24T07:16:45;26.30;99.90
56298;DHT22;42208;6.376;-10.782;2023-04-24T07:19:13;26.30;99.90
56298;DHT22;42208;6.376;-10.782;2023-04-24T07:21:41;26.40;99.90
56298;DHT22;42208;6.376;-10.782;2023-04-24T07:24:10;26.40;99.90
56298;DHT22;42208;6.376;-10.782;2023-04-24T07:26:38;26.40;99.90
56298;DHT22;42208;6.376;-10.782;2023-04-24T07:29:07;26.40;99.90
56298;DHT22;42208;6.376;-10.782;2023-04-24T07:31:35;26.40;99.90
56298;DHT22;42208;6.376;-10.782;2023-04-24T07:34:03;26.40;99.90
56298;DHT22;42208;6.376;-10.782;2023-04-24T07:36:31;26.40;99.90
56298;DHT22;42208;6.376;-10.782;2023-04-24T07:39:00;26.40;99.90
56298;DHT22;42208;6.376;-10.782;2023-04-24T07:41:28;26.40;99.90
56298;DHT22;42208;6.376;-10.782;2023-04-24T07:48:24;26.50;99.90
56298;DHT22;42208;6.376;-10.782;2023-04-24T07:50:53;26.50;99.90
56298;DHT22;42208;6.376;-10.782;2023-04-24T07:53:22;26.60;99.90
56298;DHT22;42208;6.376;-10.782;2023-04-24T07:55:50;26.60;99.90
56298;DHT22;42208;6.376;-10.782;2023-04-24T07:58:18;26.60;99.90
56298;DHT22;42208;6.376;-10.782;2023-04-24T08:00:46;26.70;99.90
56298;DHT22;42208;6.376;-10.782;2023-04-24T08:03:15;26.70;99.90
56298;DHT22;42208;6.376;-10.782;2023-04-24T08:05:43;26.70;99.90
56298;DHT22;42208;6.376;-10.782;2023-04-24T08:08:11;26.80;99.90
56298;DHT22;42208;6.376;-10.782;2023-04-24T08:10:39;26.80;99.90
56298;DHT22;42208;6.376;-10.782;2023-04-24T08:13:08;26.80;99.90
56298;DHT22;42208;6.376;-10.782;2023-04-24T08:15:36;26.90;99.90
56298;DHT22;42208;6.376;-10.782;2023-04-24T08:18:05;26.90;99.90
56298;DHT22;42208;6.376;-10.782;2023-04-24T08:20:33;27.00;99.90
56298;DHT22;42208;6.376;-10.782;2023-04-24T08:23:04;27.00;99.90
56298;DHT22;42208;6.376;-10.782;2023-04-24T08:25:32;27.10;99.90
56298;DHT22;42208;6.376;-10.782;2023-04-24T08:28:02;27.10;99.90
56298;DHT22;42208;6.376;-10.782;2023-04-24T08:30:31;27.10;99.90
56298;DHT22;42208;6.376;-10.782;2023-04-24T08:32:59;27.10;99.90
56298;DHT22;42208;6.376;-10.782;2023-04-24T08:35:28;27.10;99.90
56298;DHT22;42208;6.376;-10.782;2023-04-24T08:37:56;27.20;99.90
56298;DHT22;42208;6.376;-10.782;2023-04-24T08:40:28;27.30;99.90
56298;DHT22;42208;6.376;-10.782;2023-04-24T08:42:56;27.30;99.90
56298;DHT22;42208;6.376;-10.782;2023-04-24T08:45:25;27.30;99.90
56298;DHT22;42208;6.376;-10.782;2023-04-24T08:47:53;27.40;99.90
56298;DHT22;42208;6.376;-10.782;2023-04-24T08:50:22;27.40;99.90
56298;DHT22;42208;6.376;-10.782;2023-04-24T08:52:52;27.40;99.90
56298;DHT22;42208;6.376;-10.782;2023-04-24T08:55:20;27.50;99.90
56298;DHT22;42208;6.376;-10.782;2023-04-24T08:57:51;27.60;99.90
56298;DHT22;42208;6.376;-10.782;2023-04-24T09:00:21;27.60;99.90
56298;DHT22;42208;6.376;-10.782;2023-04-24T09:02:50;27.60;99.90
56298;DHT22;42208;6.376;-10.782;2023-04-24T09:05:18;27.60;99.90
56298;DHT22;42208;6.376;-10.782;2023-04-24T09:07:55;27.70;99.90
56298;DHT22;42208;6.376;-10.782;2023-04-24T09:10:26;27.70;99.90
56298;DHT22;42208;6.376;-10.782;2023-04-24T09:12:55;27.70;99.90
56298;DHT22;42208;6.376;-10.782;2023-04-24T09:15:24;27.70;99.90
56298;DHT22;42208;6.376;-10.782;2023-04-24T09:17:53;27.70;99.90
56298;DHT22;42208;6.376;-10.782;2023-04-24T09:20:21;27.80;99.90
56298;DHT22;42208;6.376;-10.782;2023-04-24T09:22:54;28.00;99.90
56298;DHT22;42208;6.376;-10.782;2023-04-24T09:25:25;27.90;99.90
56298;DHT22;42208;6.376;-10.782;2023-04-24T09:28:01;28.00;99.90
56298;DHT22;42208;6.376;-10.782;2023-04-24T09:30:30;28.00;99.90
56298;DHT22;42208;6.376;-10.782;2023-04-24T09:33:14;28.00;99.90
56298;DHT22;42208;6.376;-10.782;2023-04-24T09:35:49;28.10;99.90
56298;DHT22;42208;6.376;-10.782;2023-04-24T09:38:18;28.20;99.90
56298;DHT22;42208;6.376;-10.782;2023-04-24T09:40:46;28.30;99.90
56298;DHT22;42208;6.376;-10.782;2023-04-24T09:43:14;28.30;99.90
56298;DHT22;42208;6.376;-10.782;2023-04-24T09:45:43;28.30;99.90
56298;DHT22;42208;6.376;-10.782;2023-04-24T09:48:11;28.40;99.90
56298;DHT22;42208;6.376;-10.782;2023-04-24T09:50:45;28.40;99.90
56298;DHT22;42208;6.376;-10.782;2023-04-24T09:53:14;28.50;99.90
56298;DHT22;42208;6.376;-10.782;2023-04-24T09:55:47;28.50;99.90
56298;DHT22;42208;6.376;-10.782;2023-04-24T09:58:16;28.60;99.90
56298;DHT22;42208;6.376;-10.782;2023-04-24T10:00:46;28.60;99.90
56298;DHT22;42208;6.376;-10.782;2023-04-24T10:03:14;28.60;99.90
56298;DHT22;42208;6.376;-10.782;2023-04-24T10:05:42;28.60;99.90
56298;DHT22;42208;6.376;-10.782;2023-04-24T10:08:12;28.60;99.90
56298;DHT22;42208;6.376;-10.782;2023-04-24T10:10:45;28.70;99.90
56298;DHT22;42208;6.376;-10.782;2023-04-24T10:13:15;28.80;99.90
56298;DHT22;42208;6.376;-10.782;2023-04-24T10:15:43;28.80;99.90
56298;DHT22;42208;6.376;-10.782;2023-04-24T10:18:12;28.80;99.90
56298;DHT22;42208;6.376;-10.782;2023-04-24T10:20:40;28.80;99.90
56298;DHT22;42208;6.376;-10.782;2023-04-24T10:23:09;28.70;99.90
56298;DHT22;42208;6.376;-10.782;2023-04-24T10:25:37;28.70;99.90
56298;DHT22;42208;6.376;-10.782;2023-04-24T10:28:05;28.70;99.90
56298;DHT22;42208;6.376;-10.782;2023-04-24T10:30:37;28.70;99.90
56298;DHT22;42208;6.376;-10.782;2023-04-24T10:33:08;28.80;99.90
56298;DHT22;42208;6.376;-10.782;2023-04-24T10:35:41;28.90;99.90
56298;DHT22;42208;6.376;-10.782;2023-04-24T10:38:16;29.00;99.90
56298;DHT22;42208;6.376;-10.782;2023-04-24T10:40:45;29.00;99.90
56298;DHT22;42208;6.376;-10.782;2023-04-24T10:43:17;28.90;99.90
56298;DHT22;42208;6.376;-10.782;2023-04-24T10:46:05;28.90;99.90
56298;DHT22;42208;6.376;-10.782;2023-04-24T10:48:34;28.90;99.90
56298;DHT22;42208;6.376;-10.782;2023-04-24T10:51:03;29.00;99.90
56298;DHT22;42208;6.376;-10.782;2023-04-24T10:53:31;29.00;99.90
56298;DHT22;42208;6.376;-10.782;2023-04-24T10:56:05;29.10;99.90
56298;DHT22;42208;6.376;-10.782;2023-04-24T11:01:06;29.00;99.90
56298;DHT22;42208;6.376;-10.782;2023-04-24T11:03:35;28.90;99.90
56298;DHT22;42208;6.376;-10.782;2023-04-24T11:06:07;29.00;99.90
56298;DHT22;42208;6.376;-10.782;2023-04-24T11:08:43;29.00;99.90
56298;DHT22;42208;6.376;-10.782;2023-04-24T11:11:16;29.00;99.90
56298;DHT22;42208;6.376;-10.782;2023-04-24T11:14:13;29.00;99.90
56298;DHT22;42208;6.376;-10.782;2023-04-24T11:16:51;29.00;99.90
56298;DHT22;42208;6.376;-10.782;2023-04-24T11:19:25;29.10;99.90
56298;DHT22;42208;6.376;-10.782;2023-04-24T11:22:04;29.10;99.90
56298;DHT22;42208;6.376;-10.782;2023-04-24T11:27:22;29.30;99.90
56298;DHT22;42208;6.376;-10.782;2023-04-24T11:32:31;29.20;99.90
56298;DHT22;42208;6.376;-10.782;2023-04-24T11:35:08;29.20;99.90
56298;DHT22;42208;6.376;-10.782;2023-04-24T11:37:44;29.20;99.90
56298;DHT22;42208;6.376;-10.782;2023-04-24T11:40:22;29.10;99.90
56298;DHT22;42208;6.376;-10.782;2023-04-24T11:42:52;29.20;99.90
56298;DHT22;42208;6.376;-10.782;2023-04-24T11:47:52;29.20;99.90
56298;DHT22;42208;6.376;-10.782;2023-04-24T11:50:25;29.40;99.90
56298;DHT22;42208;6.376;-10.782;2023-04-24T11:52:53;29.40;99.90
56298;DHT22;42208;6.376;-10.782;2023-04-24T11:55:22;29.40;99.90
56298;DHT22;42208;6.376;-10.782;2023-04-24T11:57:53;29.50;99.90
56298;DHT22;42208;6.376;-10.782;2023-04-24T12:00:32;29.50;99.90
56298;DHT22;42208;6.376;-10.782;2023-04-24T12:03:08;29.50;99.90
56298;DHT22;42208;6.376;-10.782;2023-04-24T12:05:38;29.50;99.90
56298;DHT22;42208;6.376;-10.782;2023-04-24T12:08:07;29.50;99.90
56298;DHT22;42208;6.376;-10.782;2023-04-24T12:10:36;29.50;99.90
56298;DHT22;42208;6.376;-10.782;2023-04-24T12:13:04;29.50;99.90
56298;DHT22;42208;6.376;-10.782;2023-04-24T12:15:32;29.50;99.90
56298;DHT22;42208;6.376;-10.782;2023-04-24T12:18:01;29.50;99.90
56298;DHT22;42208;6.376;-10.782;2023-04-24T12:20:31;29.70;99.90
56298;DHT22;42208;6.376;-10.782;2023-04-24T12:23:01;29.70;99.90
56298;DHT22;42208;6.376;-10.782;2023-04-24T12:25:33;29.70;99.90
56298;DHT22;42208;6.376;-10.782;2023-04-24T12:30:35;29.80;99.90
56298;DHT22;42208;6.376;-10.782;2023-04-24T12:33:06;29.90;99.90
56298;DHT22;42208;6.376;-10.782;2023-04-24T12:35:35;29.90;99.90
56298;DHT22;42208;6.376;-10.782;2023-04-24T12:38:11;30.00;99.90
56298;DHT22;42208;6.376;-10.782;2023-04-24T12:40:41;30.00;99.90
56298;DHT22;42208;6.376;-10.782;2023-04-24T12:43:19;30.10;99.90
56298;DHT22;42208;6.376;-10.782;2023-04-24T12:45:48;30.10;99.90
56298;DHT22;42208;6.376;-10.782;2023-04-24T12:48:16;30.20;99.90
56298;DHT22;42208;6.376;-10.782;2023-04-24T12:50:47;30.30;99.90
56298;DHT22;42208;6.376;-10.782;2023-04-24T12:53:15;30.30;99.90
56298;DHT22;42208;6.376;-10.782;2023-04-24T12:55:44;30.40;99.90
56298;DHT22;42208;6.376;-10.782;2023-04-24T12:58:13;30.40;99.90
56298;DHT22;42208;6.376;-10.782;2023-04-24T13:00:41;30.30;99.90
56298;DHT22;42208;6.376;-10.782;2023-04-24T13:03:09;30.30;99.90
56298;DHT22;42208;6.376;-10.782;2023-04-24T13:05:38;30.30;99.90
56298;DHT22;42208;6.376;-10.782;2023-04-24T13:08:06;30.40;99.90
56298;DHT22;42208;6.376;-10.782;2023-04-24T13:10:34;30.40;99.90
56298;DHT22;42208;6.376;-10.782;2023-04-24T13:13:03;30.40;99.90
56298;DHT22;42208;6.376;-10.782;2023-04-24T13:15:32;30.50;99.90
56298;DHT22;42208;6.376;-10.782;2023-04-24T13:18:00;30.50;99.90
56298;DHT22;42208;6.376;-10.782;2023-04-24T13:20:28;30.50;99.90
56298;DHT22;42208;6.376;-10.782;2023-04-24T13:22:56;30.50;99.90
56298;DHT22;42208;6.376;-10.782;2023-04-24T13:25:24;30.50;99.90
56298;DHT22;42208;6.376;-10.782;2023-04-24T13:27:53;30.40;99.90
56298;DHT22;42208;6.376;-10.782;2023-04-24T13:30:21;30.40;99.90
56298;DHT22;42208;6.376;-10.782;2023-04-24T13:32:49;30.50;99.90
56298;DHT22;42208;6.376;-10.782;2023-04-24T13:35:18;30.60;99.90
56298;DHT22;42208;6.376;-10.782;2023-04-24T13:37:46;30.60;99.90
56298;DHT22;42208;6.376;-10.782;2023-04-24T13:40:14;30.60;99.90
56298;DHT22;42208;6.376;-10.782;2023-04-24T13:42:43;30.70;99.90
56298;DHT22;42208;6.376;-10.782;2023-04-24T13:45:14;30.60;99.90
56298;DHT22;42208;6.376;-10.782;2023-04-24T13:47:51;30.70;99.90
56298;DHT22;42208;6.376;-10.782;2023-04-24T13:50:21;30.60;99.90
56298;DHT22;42208;6.376;-10.782;2023-04-24T13:52:51;30.50;99.90
56298;DHT22;42208;6.376;-10.782;2023-04-24T13:55:20;30.60;99.90
56298;DHT22;42208;6.376;-10.782;2023-04-24T13:57:49;30.60;99.90
56298;DHT22;42208;6.376;-10.782;2023-04-24T14:00:17;30.50;99.90
56298;DHT22;42208;6.376;-10.782;2023-04-24T14:02:46;30.50;99.90
56298;DHT22;42208;6.376;-10.782;2023-04-24T14:05:14;30.40;99.90
56298;DHT22;42208;6.376;-10.782;2023-04-24T14:07:43;30.30;99.90
56298;DHT22;42208;6.376;-10.782;2023-04-24T14:10:11;30.40;99.90
56298;DHT22;42208;6.376;-10.782;2023-04-24T14:12:39;30.30;99.90
56298;DHT22;42208;6.376;-10.782;2023-04-24T14:15:08;30.30;99.90
56298;DHT22;42208;6.376;-10.782;2023-04-24T14:17:36;30.30;99.90
56298;DHT22;42208;6.376;-10.782;2023-04-24T14:20:05;30.40;99.90
56298;DHT22;42208;6.376;-10.782;2023-04-24T14:22:34;30.40;99.90
56298;DHT22;42208;6.376;-10.782;2023-04-24T14:25:03;30.50;99.90
56298;DHT22;42208;6.376;-10.782;2023-04-24T14:27:32;30.50;99.90
56298;DHT22;42208;6.376;-10.782;2023-04-24T14:30:01;30.70;99.90
56298;DHT22;42208;6.376;-10.782;2023-04-24T14:32:29;30.80;99.90
56298;DHT22;42208;6.376;-10.782;2023-04-24T14:34:58;30.80;99.90
56298;DHT22;42208;6.376;-10.782;2023-04-24T14:37:26;30.80;99.90
56298;DHT22;42208;6.376;-10.782;2023-04-24T14:39:54;30.80;99.90
56298;DHT22;42208;6.376;-10.782;2023-04-24T14:42:42;30.90;99.90
56298;DHT22;42208;6.376;-10.782;2023-04-24T14:45:11;31.00;99.90
56298;DHT22;42208;6.376;-10.782;2023-04-24T14:47:39;31.00;99.90
56298;DHT22;42208;6.376;-10.782;2023-04-24T14:50:08;30.80;99.90
56298;DHT22;42208;6.376;-10.782;2023-04-24T14:52:36;30.80;99.90
56298;DHT22;42208;6.376;-10.782;2023-04-24T14:55:05;30.80;99.90
56298;DHT22;42208;6.376;-10.782;2023-04-24T14:57:34;30.90;99.90
56298;DHT22;42208;6.376;-10.782;2023-04-24T15:00:04;31.00;99.90
56298;DHT22;42208;6.376;-10.782;2023-04-24T15:02:33;31.20;99.90
56298;DHT22;42208;6.376;-10.782;2023-04-24T15:05:02;31.30;99.90
56298;DHT22;42208;6.376;-10.782;2023-04-24T15:07:30;31.30;99.90
56298;DHT22;42208;6.376;-10.782;2023-04-24T15:09:59;31.50;99.90
56298;DHT22;42208;6.376;-10.782;2023-04-24T15:12:27;31.60;99.90
56298;DHT22;42208;6.376;-10.782;2023-04-24T15:14:57;31.60;99.90
56298;DHT22;42208;6.376;-10.782;2023-04-24T15:17:26;31.60;99.90
56298;DHT22;42208;6.376;-10.782;2023-04-24T15:19:54;31.70;99.90
56298;DHT22;42208;6.376;-10.782;2023-04-24T15:22:22;31.80;99.90
56298;DHT22;42208;6.376;-10.782;2023-04-24T15:24:52;31.80;99.90
56298;DHT22;42208;6.376;-10.782;2023-04-24T15:27:20;31.90;99.90
56298;DHT22;42208;6.376;-10.782;2023-04-24T15:29:48;32.00;99.90
56298;DHT22;42208;6.376;-10.782;2023-04-24T15:32:17;32.00;99.90
56298;DHT22;42208;6.376;-10.782;2023-04-24T15:34:45;32.00;99.90
56298;DHT22;42208;6.376;-10.782;2023-04-24T15:37:15;32.00;99.90
56298;DHT22;42208;6.376;-10.782;2023-04-24T15:39:45;32.00;99.90
56298;DHT22;42208;6.376;-10.782;2023-04-24T15:42:13;31.80;99.90
56298;DHT22;42208;6.376;-10.782;2023-04-24T15:44:41;31.70;99.90
56298;DHT22;42208;6.376;-10.782;2023-04-24T15:47:12;31.50;99.90
56298;DHT22;42208;6.376;-10.782;2023-04-24T15:49:40;31.30;99.90